Bookmark and Share
Track history (hours):
 

Oasis of the Seas

Last reported at 2014-Apr-14 00:00 UTC. Time now 2014-Apr-18 18:09 UTC.
Position N 21°06' W 075°00'.

Length 360 m; draft 9.3 m.

Type: Passenger vessel. MMSI: 311020600.

Wind from 080 at 26 knots

Waves 1.0 meters (3 feet), 1 second period

Barometer 1013.0 mb
Air temperature 25.0 ° C
Visibility: greater than 10.8 NM
Dewpoint 22.2 ° C
Water temperature 28.0 ° C

NotesDate/timePositionNaut miles runAvg speedWind from/ knotsBaromVisibWave heightAir tempDewpointWater temp
2014-Apr-14 00:00N 21°06' W 075°00'10417.3 080 / 261013.010.8 1.025.022.228.0
2014-Apr-13 18:00N 21°48' W 076°42'29215.8 100 / 181015.010.8 0.527.024.328.0
2014-Apr-12 23:34N 25°39' W 079°57'1615.6
2014-Apr-12 22:34N 25°54' W 080°02'1212.4
2014-Apr-12 21:33N 26°06' W 080°07'0 0.4
2014-Apr-12 20:26N 26°05' W 080°07'0 0.0
2014-Apr-12 19:29N 26°05' W 080°07'0 0.0
2014-Apr-12 18:29N 26°05' W 080°07'0 0.0
2014-Apr-12 17:29N 26°05' W 080°07'0 0.0
2014-Apr-12 16:29N 26°05' W 080°07'0 0.0
2014-Apr-12 15:29N 26°05' W 080°07'0 0.0
2014-Apr-12 14:32N 26°05' W 080°07'0 0.0
2014-Apr-12 13:32N 26°05' W 080°07'0 0.0
2014-Apr-12 12:32N 26°05' W 080°07'0 0.0
2014-Apr-12 11:33N 26°05' W 080°07'0 0.0
2014-Apr-12 10:24N 26°05' W 080°07'0 0.4
2014-Apr-12 09:33N 26°05' W 080°07'1413.6
2014-Apr-12 08:33N 26°07' W 079°52'1716.0
2014-Apr-12 07:31N 26°09' W 079°34'1414.7
2014-Apr-12 06:33N 26°10' W 079°18'23035.0
2014-Apr-12 00:00N 22°48' W 077°18'83216.8 070 / 91021.010.8 1.026.021.727.0
2014-Apr-09 22:33N 18°09' W 063°22'1916.9
2014-Apr-09 21:26N 18°00' W 063°04'1 0.1
2014-Apr-09 11:29N 18°00' W 063°03'10 8.2
2014-Apr-09 10:16N 18°00' W 063°14'9 9.4
2014-Apr-09 09:20N 17°60' W 063°23'7 9.2
2014-Apr-09 08:33N 18°00' W 063°31'10 9.8
2014-Apr-09 07:33N 18°01' W 063°41'  
2014-Apr-05 22:33N 26°07' W 079°47'1615.8
2014-Apr-05 21:33N 26°06' W 080°05'2 2.1
2014-Apr-05 20:24N 26°05' W 080°07'0 0.0
2014-Apr-05 19:33N 26°05' W 080°07'0 0.0
2014-Apr-05 18:31N 26°05' W 080°07'0 0.0
2014-Apr-05 17:31N 26°05' W 080°07'0 0.0
2014-Apr-05 16:31N 26°05' W 080°07'0 0.0
2014-Apr-05 15:22N 26°05' W 080°07'0 0.0
2014-Apr-05 14:22N 26°05' W 080°07'0 0.0
2014-Apr-05 13:22N 26°05' W 080°07'0 0.0
2014-Apr-05 12:10N 26°05' W 080°07'0 0.0
2014-Apr-05 11:28N 26°05' W 080°07'0 0.0
2014-Apr-05 10:13N 26°05' W 080°07'0 0.3
2014-Apr-05 09:33N 26°05' W 080°07'1111.1
2014-Apr-05 08:34N 25°60' W 079°56'1515.3
2014-Apr-05 07:34N 25°45' W 079°57'  

Dump ship's entire track history

sailing weather and tide predictions

Oasis of the Seas — C6XS7 — position and weather